الصفحة الرئيسية
METAR-TAF:

METAR-TAF

مطار :

Taitung, تايوان

دائرة عرض: 22-45-17N, خط طول: 121-06-06E, ارتفاع: 44 متر

مراقبة الطقس الحالي

تاريخ ووقت الإصدار 5ساعات و 22 دقيقة قبل الساعة 14:00UTC
ريح 3 عقدة من الغرب, الاتجاه يتراوح بين الغرب/الجنوب الغربي و الشمال/الشمال الغربي
درجة الحرارة 26°درجة مئوية
الرطوبة 100%
ضغط 1007 hPa
الرؤية 10 كم أو أكثر
غيوم قليلة على ارتفاع 2000 قدم
غيوم متفرقة على ارتفاع 8000 قدم

METAR: RCFN 141400Z 28003KT 250V330 9999 FEW020 SCT080 26/26 Q1007 NOSIG RMK A2974

زمن: 03:22 (19:22 UTC)

توقعات

تاريخ ووقت الإصدار 2ساعات و 22 دقيقة قبل الساعة 17:00UTC
التوقعات صالحة من14 الساعة 18 UTC إلى 15 الساعة 18 UTC
ريح 5 عقدة من الغرب/الشمال الغربي
الرؤية 10 كم أو أكثر
غيوم قليلة على ارتفاع 1500 قدم
غيوم مفككة على ارتفاع 3200 قدم
مؤقت
من 14 الساعة 22 UTC إلى 14 الساعة 24 UTC
ريح 5 عقدة من الشمال الشرقي
مؤقت
من 15 الساعة 02 UTC إلى 15 الساعة 08 UTC
ريح 5 عقدة من الجنوب

TAF: RCFN 141700Z 1418/1518 30005KT 9999 FEW015 BKN032 TEMPO 1422/1424 04005KT TEMPO 1502/1508 18005KT

أرصاد الطقس والتوقعات من أكثر من 4000 مطار (تقارير الطقس للمطار METAR والتنبؤ بالطقس بالمطارTAF).

المحطات المتاحة هي النقط الصفراء والحمراء على الخريطة.

حرك المؤشر فوق النقطة لمعرفة اسم المحطة.

ثم انقر لمعرفة أرصاد وتوقعات الطقس.

لتغيير الخارطة: اضغط على الأزرار الخضراء مع رمز الصليب الأسود للتكبير. على الزر الأخضر مع شرطة للتصغير، أو على الأسهم الخضراء للخرائط المجاورة.


METAR-TAF: